Latest Weather Observations for Glen Innes Airport

IDN60801

Issued at 11:05 am EDT Saturday 25 October 2014 (issued every 30 minutes, with the page automatically refreshed every 10 minutes)

About weather observations | Map of weather stations | Latest weather observations for NSW | Other Formats
Station Details ID: 056243 Name: GLEN INNES AIRPORT AWS Lat: -29.68 Lon: 151.69 Height: 1044.3 m
Data from the previous 72 hours. | See also: Recent months for locations in New South Wales
Date/Time
EDT
Temp
°C
App
Temp
°C
Dew
Point
Rel
Hum
%
Delta-T
°C
Wind Press
QNH
hPa
Press
MSL
hPa
Rain
since 9 am
mm
Dir
 
Spd
km/h
Gust
km/h
Spd
kts
Gust
kts
25/11:00am 23.2 18.7 9.9 43 7.6 W 24 35 13 19 1022.9 1020.2 0.0
25/10:30am 21.4 18.0 11.4 53 5.8 WNW 20 26 11 14 1023.4 1020.7 0.0
25/10:00am 20.5 16.9 11.7 57 5.1 WNW 22 30 12 16 1023.5 1020.8 0.0
25/09:30am 19.6 16.3 11.6 60 4.6 NW 20 30 11 16 1023.4 1020.7 0.0
25/09:00am 17.9 14.6 11.7 67 3.6 WNW 20 28 11 15 1023.6 1020.9 0.0
25/08:30am 16.9 13.7 11.8 72 2.9 WNW 20 24 11 13 1023.7 1021.0 0.0
25/08:00am 15.6 15.1 12.7 83 1.7 NW 7 13 4 7 1023.4 1020.7 0.0
25/07:30am 13.8 13.9 13.8 100 0.0 S 6 7 3 4 1023.1 1020.5 0.0
25/07:00am 10.3 9.3 10.3 100 0.0 S 6 9 3 5 1022.8 1020.1 0.0
25/06:30am 9.3 8.3 9.0 98 0.2 SSW 4 7 2 4 1022.3 1019.5 0.0
25/06:00am 9.0 7.4 8.9 99 0.1 SSE 7 9 4 5 1022.0 1019.3 0.0
25/05:30am 8.9 7.4 8.6 98 0.2 SSE 6 7 3 4 1021.8 1019.1 0.0
25/05:00am 8.9 7.3 8.8 99 0.1 S 7 7 4 4 1021.6 1018.9 0.0
25/04:30am 10.2 9.2 10.2 100 0.0 S 6 6 3 3 1021.4 1018.6 0.0
25/04:00am 9.4 8.5 9.1 98 0.2 S 4 7 2 4 1021.0 1018.3 0.0
25/03:30am 9.4 9.0 8.3 93 0.6 CALM 0 0 0 0 1021.0 1018.3 0.0
25/03:00am 11.4 11.7 10.9 97 0.3 CALM 0 0 0 0 1021.3 1018.5 0.0
25/02:30am 11.5 10.6 10.6 94 0.5 N 6 6 3 3 1021.4 1018.6 0.0
25/02:00am 12.1 11.7 11.2 94 0.5 ENE 4 7 2 4 1021.8 1019.1 0.0
25/01:30am 12.8 11.7 12.0 95 0.5 S 9 11 5 6 1022.5 1019.8 0.0
25/01:00am 11.3 9.8 10.7 96 0.3 SSE 9 13 5 7 1022.6 1019.9 0.0
25/12:30am 11.9 10.6 11.3 96 0.3 SSE 9 9 5 5 1022.7 1020.0 0.0
25/12:00am 13.1 12.7 12.3 95 0.5 ESE 6 7 3 4 1022.8 1020.1 0.0
 
Date/Time
EDT
Temp
°C
App
Temp
°C
Dew
Point
Rel
Hum
%
Delta-T
°C
Wind Press
QNH
hPa
Press
MSL
hPa
Rain
since 9 am
mm
Dir
 
Spd
km/h
Gust
km/h
Spd
kts
Gust
kts
24/11:30pm 11.7 10.7 10.9 95 0.4 E 7 9 4 5 1022.9 1020.2 0.0
24/11:00pm 11.6 10.2 10.8 95 0.4 SE 9 9 5 5 1022.9 1020.2 0.0
24/10:30pm 11.8 10.4 10.9 94 0.5 ESE 9 11 5 6 1023.1 1020.5 0.0
24/10:00pm 13.9 13.6 12.6 92 0.7 E 6 7 3 4 1023.4 1020.7 0.0
24/09:30pm 14.3 12.8 10.7 79 2.0 NE 9 13 5 7 1023.3 1020.6 0.0
24/09:00pm 13.5 12.0 9.2 75 2.3 E 7 11 4 6 1023.3 1020.6 0.0
24/08:30pm 14.8 13.8 10.4 75 2.4 ENE 6 9 3 5 1023.1 1020.5 0.0
24/08:00pm 16.1 15.8 8.6 61 4.0 CALM 0 7 0 4 1022.8 1020.1 0.0
24/07:30pm 17.8 16.1 8.4 54 5.1 NNE 7 9 4 5 1022.5 1019.8 0.0
24/07:00pm 21.6 19.7 7.4 40 7.7 N 7 9 4 5 1022.2 1019.4 0.0
24/06:30pm 22.2 20.3 7.6 39 8.0 NNE 7 11 4 6 1021.9 1019.2 0.0
24/06:00pm 23.7 22.1 8.2 37 8.6 S 6 9 3 5 1021.6 1018.9 0.0
24/05:30pm 24.2 22.3 6.9 33 9.5 W 6 11 3 6 1021.6 1018.9 0.0
24/05:00pm 23.9 21.9 7.1 34 9.2 SSW 7 15 4 8 1021.8 1019.1 0.0
24/04:30pm 23.2 19.5 6.5 34 9.0 WSW 15 20 8 11 1021.9 1019.2 0.0
24/04:00pm 23.0 18.6 6.7 35 8.8 WSW 19 24 10 13 1022.2 1019.4 0.0
24/03:30pm 23.2 18.8 7.3 36 8.7 W 20 24 11 13 1022.3 1019.5 0.0
24/03:00pm 23.8 19.8 8.2 37 8.7 WSW 19 28 10 15 1022.5 1019.8 0.0
24/02:30pm 24.7 20.9 9.0 37 8.9 W 19 26 10 14 1022.9 1020.2 0.0
24/02:00pm 23.8 19.7 8.6 38 8.5 WSW 20 28 11 15 1023.4 1020.7 0.0
24/01:30pm 24.5 20.3 7.6 34 9.4 WSW 19 26 10 14 1023.4 1020.7 0.0
24/01:00pm 24.0 20.7 9.6 40 8.2 W 17 24 9 13 1023.6 1020.9 0.0
24/12:30pm 24.1 21.3 8.5 37 8.8 WSW 13 24 7 13 1024.0 1021.4 0.0
24/12:00pm 24.4 20.0 7.5 34 9.3 WSW 20 24 11 13 1024.3 1021.6 0.0
24/11:30am 23.1 21.1 10.2 44 7.4 NW 11 19 6 10 1024.5 1021.8 0.0
24/11:00am 21.7 18.9 9.9 47 6.7 WNW 15 24 8 13 1024.9 1022.3 0.0
24/10:30am 20.9 18.0 9.8 49 6.3 WNW 15 24 8 13 1025.3 1022.6 0.0
24/10:00am 20.1 17.4 10.2 53 5.6 WNW 15 20 8 11 1025.4 1022.7 0.0
24/09:30am 19.5 16.5 10.5 56 5.1 WNW 17 24 9 13 1025.6 1022.9 0.0
24/09:00am 18.8 14.9 9.6 55 5.1 WNW 20 26 11 14 1025.5 1022.8 3.2
24/08:30am 16.8 16.9 10.0 64 3.8 CALM 0 0 0 0 1025.3 1022.6 3.2
24/08:00am 14.7 13.5 10.3 75 2.4 E 7 9 4 5 1024.8 1022.1 3.2
24/07:30am 12.1 10.4 9.8 86 1.2 E 9 11 5 6 1024.6 1021.9 3.2
24/07:00am 9.7 7.8 9.1 96 0.3 E 9 13 5 7 1024.4 1021.7 3.2
24/06:30am 7.3 6.2 7.0 98 0.1 E 2 6 1 3 1023.9 1021.2 3.2
24/06:00am 7.1 4.2 6.7 97 0.2 E 11 11 6 6 1023.4 1020.7 3.2
24/05:30am 8.0 6.3 7.7 98 0.2 SE 6 7 3 4 1023.1 1020.5 3.2
24/05:00am 8.5 6.4 8.2 98 0.2 SE 9 13 5 7 1022.7 1020.0 3.2
24/04:30am 8.8 6.3 8.0 95 0.4 ESE 11 15 6 8 1022.7 1020.0 3.2
24/04:00am 9.3 7.4 9.2 99 0.1 ESE 9 13 5 7 1022.6 1019.9 3.2
24/03:30am 9.1 7.1 8.5 96 0.3 SE 9 11 5 6 1022.8 1020.1 3.2
24/03:00am 9.7 7.8 8.9 95 0.4 E 9 11 5 6 1022.8 1020.1 3.2
24/02:30am 11.5 10.5 10.4 93 0.6 NW 6 7 3 4 1023.1 1020.5 3.2
24/02:00am 11.8 10.3 10.7 93 0.6 SE 9 9 5 5 1023.5 1020.8 3.2
24/01:30am 12.4 10.5 10.5 88 1.0 SSE 11 15 6 8 1023.6 1020.9 3.2
24/01:00am 12.2 11.5 11.3 94 0.5 ESE 6 9 3 5 1023.9 1021.2 3.2
24/12:30am 12.2 11.6 11.6 96 0.3 ESE 6 7 3 4 1024.3 1021.6 3.2
24/12:00am 12.5 11.3 11.6 94 0.5 E 9 11 5 6 1024.3 1021.6 3.2
 
Date/Time
EDT
Temp
°C
App
Temp
°C
Dew
Point
Rel
Hum
%
Delta-T
°C
Wind Press
QNH
hPa
Press
MSL
hPa
Rain
since 9 am
mm
Dir
 
Spd
km/h
Gust
km/h
Spd
kts
Gust
kts
23/11:30pm 12.8 12.0 11.7 93 0.6 ESE 7 9 4 5 1024.4 1021.7 3.2
23/11:00pm 12.6 10.8 12.0 96 0.3 SSE 13 19 7 10 1024.4 1021.7 3.2
23/10:30pm 12.2 10.3 11.7 97 0.3 SE 13 17 7 9 1024.4 1021.7 3.2
23/10:00pm 12.8 11.1 12.3 97 0.3 SE 13 17 7 9 1024.4 1021.7 3.2
23/09:30pm 12.8 11.1 12.3 97 0.3 ESE 13 17 7 9 1023.9 1021.2 3.2
23/09:00pm 13.3 12.9 12.4 94 0.5 ENE 6 9 3 5 1023.7 1021.0 3.2
23/08:30pm 14.0 13.6 12.9 93 0.6 NE 7 9 4 5 1023.4 1020.7 3.2
23/08:00pm 13.5 12.7 12.9 96 0.3 SE 9 11 5 6 1023.6 1020.9 3.2
23/07:30pm 14.3 13.7 12.3 88 1.1 NNE 7 9 4 5 1023.1 1020.5 3.2
23/07:00pm 14.6 14.1 12.8 89 1.0 N 7 11 4 6 1022.8 1020.1 3.2
23/06:30pm 14.7 12.3 12.6 87 1.2 E 17 24 9 13 1022.7 1020.0 3.2
23/06:00pm 14.5 10.0 12.7 89 1.0 E 28 35 15 19 1022.5 1019.8 3.2
23/05:30pm 15.7 10.0 11.7 77 2.3 ESE 33 46 18 25 1022.3 1019.5 0.2
23/05:00pm 19.5 11.4 8.8 50 5.9 E 41 54 22 29 1021.3 1018.5 0.0
23/04:44pm 20.6 11.3 7.6 43 7.1 ESE 46 54 25 29 1021.2 1018.4 0.0
23/04:40pm 23.4 16.5 8.7 39 8.3 SSE 35 57 19 31 1020.9 1018.2 0.0
23/04:30pm 24.4 18.7 4.7 28 10.4 SW 24 32 13 17 1020.4 1017.6 0.0
23/04:00pm 24.9 20.0 7.1 32 9.8 WSW 22 33 12 18 1019.9 1017.2 0.0
23/03:30pm 24.2 18.3 6.0 31 9.8 WSW 26 44 14 24 1020.2 1017.4 0.0
23/03:00pm 24.7 19.7 8.2 35 9.2 W 24 39 13 21 1020.5 1017.7 0.0
23/02:30pm 24.2 18.4 7.8 35 9.1 WSW 28 41 15 22 1020.9 1018.2 0.0
23/02:00pm 24.2 19.3 8.6 37 8.8 WSW 24 35 13 19 1021.3 1018.5 0.0
23/01:30pm 23.9 18.9 9.5 40 8.2 WSW 26 37 14 20 1021.8 1019.1 0.0
23/01:00pm 23.3 17.7 8.6 39 8.2 WSW 28 35 15 19 1022.6 1019.9 0.0
23/12:30pm 22.3 17.9 8.8 42 7.6 WSW 22 32 12 17 1023.1 1020.5 0.0
23/12:00pm 21.9 18.6 8.1 41 7.6 WSW 15 24 8 13 1023.5 1020.8 0.0
23/11:30am 21.2 17.5 8.1 43 7.2 WSW 17 24 9 13 1023.7 1021.0 0.0
23/11:00am 20.8 17.0 9.1 47 6.5 W 19 30 10 16 1024.1 1021.5 0.0
23/10:30am 19.5 16.5 7.9 47 6.3 W 13 20 7 11 1024.4 1021.7 0.0
23/10:00am 19.0 15.2 8.9 52 5.5 W 19 24 10 13 1024.6 1021.9 0.0
23/09:30am 17.6 14.0 8.5 55 4.9 W 17 24 9 13 1024.6 1021.9 0.0
23/09:00am 17.0 13.2 8.9 59 4.4 W 19 24 10 13 1024.6 1021.9 0.0
23/08:30am 15.7 11.9 8.9 64 3.7 W 19 24 10 13 1024.6 1021.9 0.0
23/08:00am 12.2 12.6 11.4 95 0.4 CALM 0 9 0 5 1024.5 1021.8 0.0
23/07:30am 9.0 8.8 9.0 100 0.0 CALM 0 0 0 0 1024.4 1021.7 0.0
23/07:00am 6.0 3.9 6.0 100 0.0 ESE 6 9 3 5 1024.0 1021.4 0.0
23/06:30am 3.4 1.6 3.4 100 0.0 ESE 2 7 1 4 1024.0 1021.4 0.0
23/06:00am 2.6 -0.7 2.6 100 0.0 SSE 9 9 5 5 1023.8 1021.1 0.0
23/05:30am 3.7 1.9 3.7 100 0.0 SSE 2 7 1 4 1023.4 1020.7 0.0
23/05:00am 3.7 1.2 3.7 100 0.0 ESE 6 9 3 5 1022.9 1020.2 0.0
23/04:30am 3.5 0.0 3.5 100 0.0 ESE 11 11 6 6 1022.9 1020.2 0.0
23/04:00am 4.6 1.3 4.6 100 0.0 E 11 13 6 7 1023.1 1020.5 0.0
23/03:30am 4.2 0.8 4.2 100 0.0 E 11 13 6 7 1023.3 1020.6 0.0
23/03:00am 4.8 1.9 4.8 100 0.0 E 9 11 5 6 1023.4 1020.7 0.0
23/02:30am 4.6 1.7 4.6 100 0.0 ESE 9 13 5 7 1023.5 1020.8 0.0
23/02:00am 5.1 2.7 5.1 100 0.0 ESE 7 7 4 4 1023.8 1021.1 0.0
23/01:30am 5.1 2.6 4.8 98 0.1 ESE 7 9 4 5 1024.3 1021.6 0.0
23/01:00am 5.7 2.9 5.0 95 0.3 ESE 9 11 5 6 1024.5 1021.8 0.0
23/12:30am 8.1 6.8 7.8 98 0.2 SE 4 13 2 7 1024.7 1022.0 0.0
23/12:00am 7.1 3.7 5.7 91 0.7 SE 13 15 7 8 1024.7 1022.0 0.0
 
Date/Time
EDT
Temp
°C
App
Temp
°C
Dew
Point
Rel
Hum
%
Delta-T
°C
Wind Press
QNH
hPa
Press
MSL
hPa
Rain
since 9 am
mm
Dir
 
Spd
km/h
Gust
km/h
Spd
kts
Gust
kts
22/11:30pm 9.2 6.5 7.5 89 0.9 SE 11 13 6 7 1024.7 1022.0 0.0
22/11:00pm 9.5 6.6 8.1 91 0.7 SE 13 15 7 8 1024.9 1022.3 0.0
22/10:30pm 10.3 7.2 8.9 91 0.7 ESE 15 19 8 10 1025.1 1022.5 0.0
22/10:00pm 9.4 6.2 7.0 85 1.2 ESE 13 17 7 9 1025.4 1022.7 0.0
22/09:30pm 9.2 6.2 5.8 79 1.7 SE 11 13 6 7 1025.1 1022.5 0.0
22/09:00pm 10.6 7.3 6.2 74 2.2 ESE 13 15 7 8 1025.0 1022.4 0.0
22/08:30pm 11.9 8.6 6.2 68 2.8 E 13 17 7 9 1024.8 1022.1 0.0
22/08:00pm 14.0 10.4 6.8 62 3.7 ENE 15 20 8 11 1024.5 1021.8 0.0
22/07:30pm 14.8 10.8 6.6 58 4.2 E 17 20 9 11 1024.1 1021.5 0.0
22/07:00pm 16.7 12.7 6.8 52 5.2 E 17 20 9 11 1023.8 1021.1 0.0
22/06:30pm 18.7 14.3 7.2 47 6.1 ENE 20 28 11 15 1023.6 1020.9 0.0
22/06:00pm 19.6 17.2 7.0 44 6.7 E 9 15 5 8 1023.4 1020.7 0.0
22/05:30pm 21.0 18.0 7.6 42 7.3 E 13 17 7 9 1023.3 1020.6 0.0
22/05:00pm 21.1 17.4 6.2 38 7.9 E 15 20 8 11 1023.1 1020.5 0.0
22/04:30pm 21.3 19.4 7.5 41 7.5 NE 7 13 4 7 1023.0 1020.3 0.0
22/04:00pm 21.4 18.2 8.3 43 7.2 E 15 20 8 11 1023.3 1020.6 0.0
22/03:30pm 20.6 18.1 8.3 45 6.8 ENE 11 19 6 10 1023.5 1020.8 0.0
22/03:00pm 21.4 19.9 9.3 46 6.8 ESE 7 15 4 8 1023.9 1021.2 0.0
22/02:30pm 19.9 17.7 7.9 46 6.5 NE 9 20 5 11 1024.4 1021.7 0.0
22/02:00pm 19.9 17.7 9.5 51 5.8 NE 11 20 6 11 1024.8 1022.1 0.0
22/01:30pm 18.8 17.1 8.5 51 5.6 WSW 7 15 4 8 1025.5 1022.8 0.0
22/01:00pm 18.2 16.0 7.9 51 5.5 NNE 9 19 5 10 1026.1 1023.5 0.0
22/12:30pm 17.8 14.6 8.6 55 5.0 E 15 22 8 12 1026.7 1024.1 0.0
22/12:00pm 17.1 14.7 8.5 57 4.6 E 11 26 6 14 1027.2 1024.6 0.0
22/11:30am 15.9 12.9 7.7 58 4.3 E 13 22 7 12 1027.7 1025.1 0.0

Other Formats:

Comma delimited format used in spreadsheet applications
http://www.bom.gov.au/fwo/IDN60801/IDN60801.94588.axf

JavaScript Object Notation format (JSON) in row-major order
http://www.bom.gov.au/fwo/IDN60801/IDN60801.94588.json